Time;durP1;ratioP1;P1;durP2;ratioP2;P2;SDS_P1;SDS_P2;PMS_P1;PMS_P2;Temp;Humidity;BMP_temperature;BMP_pressure;BME280_temperature;BME280_humidity;BME280_pressure;Samples;Min_cycle;Max_cycle;Signal;HPM_P1;HPM_P2
2022/03/05 00:01:51;;;;;;;9.15;5.62;;;-1.30;99.90;;;;;;476792;249;29176;-71
2022/03/05 00:03:52;;;;;;;8.80;6.12;;;-1.30;99.90;;;;;;476800;249;27587;-72
2022/03/05 00:05:53;;;;;;;9.02;6.03;;;-1.30;99.90;;;;;;476757;249;27519;-73
2022/03/05 00:07:54;;;;;;;6.75;5.43;;;-1.30;99.90;;;;;;476755;249;27559;-71
2022/03/05 00:09:56;;;;;;;8.38;5.32;;;-1.30;99.90;;;;;;476815;249;27630;-74
2022/03/05 00:11:57;;;;;;;9.43;5.85;;;-1.20;99.90;;;;;;476796;249;27520;-71
2022/03/05 00:13:58;;;;;;;8.50;5.28;;;-1.30;99.90;;;;;;476763;249;27558;-73
2022/03/05 00:15:59;;;;;;;9.90;6.37;;;-1.30;99.90;;;;;;476777;249;27507;-72
2022/03/05 00:18:01;;;;;;;7.57;5.55;;;-1.40;99.90;;;;;;476790;249;28061;-71
2022/03/05 00:20:02;;;;;;;11.65;5.95;;;-1.40;99.90;;;;;;476806;249;28181;-73
2022/03/05 00:22:03;;;;;;;11.85;6.45;;;-1.50;99.90;;;;;;476812;249;29078;-71
2022/03/05 00:24:05;;;;;;;9.55;6.40;;;-1.70;99.90;;;;;;476831;249;27629;-72
2022/03/05 00:26:06;;;;;;;11.00;6.70;;;-1.70;99.90;;;;;;476825;249;27589;-71
2022/03/05 00:28:07;;;;;;;11.43;6.70;;;-1.80;99.90;;;;;;476808;249;27547;-72
2022/03/05 00:30:08;;;;;;;9.40;6.57;;;-1.80;99.90;;;;;;476843;249;27651;-74
2022/03/05 00:32:10;;;;;;;8.75;6.05;;;-1.80;99.90;;;;;;476816;249;27524;-71
2022/03/05 00:34:11;;;;;;;12.80;7.45;;;-1.80;99.90;;;;;;476787;249;27634;-72
2022/03/05 00:36:12;;;;;;;8.02;5.82;;;-1.70;99.90;;;;;;476790;247;28030;-71
2022/03/05 00:38:13;;;;;;;8.55;5.68;;;-1.80;99.90;;;;;;476791;249;28117;-72
2022/03/05 00:40:15;;;;;;;10.77;6.70;;;-1.70;99.90;;;;;;476803;249;28042;-74
2022/03/05 00:42:16;;;;;;;8.45;5.90;;;-1.70;99.90;;;;;;476831;249;27519;-71
2022/03/05 00:44:17;;;;;;;9.23;6.15;;;-1.60;99.90;;;;;;476791;249;27548;-72
2022/03/05 00:46:18;;;;;;;12.07;6.72;;;-1.70;99.90;;;;;;476782;249;27508;-72
2022/03/05 00:48:20;;;;;;;11.45;6.82;;;-1.80;99.90;;;;;;476773;249;27550;-72
2022/03/05 00:50:21;;;;;;;10.73;6.80;;;-1.90;99.90;;;;;;476804;249;27703;-74
2022/03/05 00:52:22;;;;;;;10.35;6.45;;;-2.00;99.90;;;;;;476820;249;27555;-72
2022/03/05 00:54:23;;;;;;;10.88;6.25;;;-2.10;99.90;;;;;;476794;249;28079;-72
2022/03/05 00:56:25;;;;;;;13.70;6.70;;;-2.10;99.90;;;;;;476793;249;29055;-72
2022/03/05 00:58:26;;;;;;;8.88;6.10;;;-2.20;99.90;;;;;;476778;249;27626;-72
2022/03/05 01:00:27;;;;;;;14.05;7.07;;;-2.10;99.90;;;;;;476806;249;27555;-74
2022/03/05 01:02:30;;;;;;;11.70;7.30;;;-2.10;99.90;;;;;;476809;249;27618;-73
2022/03/05 01:04:30;;;;;;;10.00;6.68;;;-2.00;99.90;;;;;;476718;249;27443;-72
2022/03/05 01:06:31;;;;;;;10.75;6.82;;;-2.00;99.90;;;;;;476817;249;27502;-71
2022/03/05 01:08:33;;;;;;;9.15;6.50;;;-2.00;99.90;;;;;;476792;249;27572;-72
2022/03/05 01:10:33;;;;;;;10.02;6.45;;;-2.00;99.90;;;;;;476781;249;28349;-74
2022/03/05 01:12:35;;;;;;;8.32;5.90;;;-2.00;99.90;;;;;;476810;249;27973;-71
2022/03/05 01:14:36;;;;;;;7.97;6.18;;;-2.00;99.90;;;;;;476830;249;27570;-72
2022/03/05 01:16:37;;;;;;;9.50;6.55;;;-2.00;99.90;;;;;;476829;249;27508;-71
2022/03/05 01:18:38;;;;;;;10.57;6.03;;;-1.90;99.90;;;;;;476806;249;27645;-72
2022/03/05 01:20:40;;;;;;;9.20;5.57;;;-1.90;99.90;;;;;;476809;249;27554;-71
2022/03/05 01:22:41;;;;;;;8.57;6.03;;;-1.90;99.90;;;;;;476817;249;27626;-72
2022/03/05 01:24:42;;;;;;;7.93;5.53;;;-1.90;99.90;;;;;;476795;249;27667;-73
2022/03/05 01:26:43;;;;;;;8.88;5.80;;;-1.90;99.90;;;;;;476838;249;27468;-72
2022/03/05 01:28:45;;;;;;;9.68;6.40;;;-1.90;99.90;;;;;;476873;249;28000;-71
2022/03/05 01:30:46;;;;;;;10.20;5.43;;;-1.90;99.90;;;;;;476834;249;28744;-71
2022/03/05 01:32:47;;;;;;;7.65;5.70;;;-1.90;99.90;;;;;;476826;249;27508;-72
2022/03/05 01:34:48;;;;;;;7.93;5.28;;;-1.80;99.90;;;;;;476847;249;27542;-73
2022/03/05 01:36:50;;;;;;;8.15;5.55;;;-1.80;99.90;;;;;;476841;249;27516;-74
2022/03/05 01:38:51;;;;;;;7.82;4.95;;;-1.70;99.90;;;;;;476842;249;27545;-72
2022/03/05 01:40:52;;;;;;;6.05;5.25;;;-1.70;99.90;;;;;;476827;249;27691;-71
2022/03/05 01:42:53;;;;;;;8.57;5.05;;;-1.60;99.90;;;;;;476841;249;27543;-72
2022/03/05 01:44:55;;;;;;;7.30;5.00;;;-1.60;99.90;;;;;;476838;249;27563;-73
2022/03/05 01:46:56;;;;;;;6.00;5.40;;;-1.60;99.90;;;;;;476826;249;27519;-72
2022/03/05 01:48:57;;;;;;;8.88;5.15;;;-1.60;99.90;;;;;;476802;249;27999;-72
2022/03/05 01:50:58;;;;;;;6.07;5.32;;;-1.70;99.90;;;;;;476815;249;29365;-71
2022/03/05 01:53:00;;;;;;;9.45;5.70;;;-1.90;99.90;;;;;;476817;249;27675;-71
2022/03/05 01:55:01;;;;;;;9.05;5.35;;;-1.90;99.90;;;;;;476820;249;27547;-73
2022/03/05 01:57:02;;;;;;;8.27;5.45;;;-1.90;99.90;;;;;;476791;249;27619;-72
2022/03/05 01:59:03;;;;;;;7.65;5.90;;;-1.70;99.90;;;;;;476805;249;27606;-72
2022/03/05 02:01:05;;;;;;;10.55;6.47;;;-1.80;99.90;;;;;;476806;248;27635;-71
2022/03/05 02:03:06;;;;;;;8.88;5.85;;;-1.90;99.90;;;;;;476821;249;27526;-71
2022/03/05 02:05:09;;;;;;;9.90;6.22;;;-2.10;99.90;;;;;;476826;249;27595;-72
2022/03/05 02:07:08;;;;;;;7.70;6.03;;;-2.20;99.90;;;;;;476714;249;27991;-71
2022/03/05 02:09:10;;;;;;;8.65;6.15;;;-2.20;99.90;;;;;;476801;249;28015;-71
2022/03/05 02:11:11;;;;;;;9.48;6.37;;;-2.30;99.90;;;;;;476791;249;28732;-71
2022/03/05 02:13:12;;;;;;;7.60;5.28;;;-2.40;99.90;;;;;;476801;249;27578;-72
2022/03/05 02:15:14;;;;;;;7.55;5.65;;;-2.40;99.90;;;;;;476830;249;27552;-72
2022/03/05 02:17:15;;;;;;;10.50;6.22;;;-2.40;99.90;;;;;;476811;249;27506;-71
2022/03/05 02:19:17;;;;;;;8.13;5.37;;;-2.40;99.90;;;;;;476805;249;27580;-72
2022/03/05 02:21:17;;;;;;;7.10;5.45;;;-2.30;99.90;;;;;;476794;249;27617;-71
2022/03/05 02:23:19;;;;;;;6.20;5.32;;;-2.30;99.90;;;;;;476800;248;27516;-72
2022/03/05 02:25:20;;;;;;;8.55;5.85;;;-2.30;99.90;;;;;;476798;249;27537;-72
2022/03/05 02:27:21;;;;;;;7.57;6.47;;;-2.40;99.90;;;;;;476791;249;28043;-72
2022/03/05 02:29:22;;;;;;;8.85;6.03;;;-2.30;99.90;;;;;;476805;249;28039;-72
2022/03/05 02:31:24;;;;;;;7.22;4.93;;;-2.30;99.90;;;;;;476802;249;29160;-71
2022/03/05 02:33:25;;;;;;;9.10;5.70;;;-2.30;99.90;;;;;;476813;249;27527;-72
2022/03/05 02:35:26;;;;;;;6.90;5.25;;;-2.30;99.90;;;;;;476834;249;27551;-74
2022/03/05 02:37:27;;;;;;;8.13;5.53;;;-2.30;99.90;;;;;;476790;249;27584;-71
2022/03/05 02:39:29;;;;;;;8.60;5.37;;;-2.30;99.90;;;;;;476787;249;27565;-72
2022/03/05 02:41:30;;;;;;;5.78;4.97;;;-2.30;99.90;;;;;;476802;249;27530;-72
2022/03/05 02:43:31;;;;;;;8.95;5.35;;;-2.20;99.90;;;;;;476793;249;27508;-72
2022/03/05 02:45:32;;;;;;;8.70;5.30;;;-2.20;99.90;;;;;;476831;249;27569;-73
2022/03/05 02:47:34;;;;;;;8.32;5.10;;;-2.20;99.90;;;;;;476807;249;28093;-72
2022/03/05 02:49:35;;;;;;;7.37;5.10;;;-2.10;99.90;;;;;;476810;249;28117;-72
2022/03/05 02:51:36;;;;;;;7.22;4.78;;;-2.20;99.90;;;;;;476824;249;28706;-71
2022/03/05 02:53:37;;;;;;;7.57;5.22;;;-2.20;99.90;;;;;;476815;249;27372;-71
2022/03/05 02:55:39;;;;;;;5.70;4.62;;;-2.30;99.90;;;;;;476820;249;27570;-73
2022/03/05 02:57:40;;;;;;;6.47;4.37;;;-2.30;99.90;;;;;;476829;249;27600;-71
2022/03/05 02:59:41;;;;;;;9.32;5.07;;;-2.30;99.90;;;;;;476816;249;27533;-72
2022/03/05 03:01:42;;;;;;;7.55;5.05;;;-2.40;99.90;;;;;;476830;249;27534;-74
2022/03/05 03:03:44;;;;;;;7.75;5.45;;;-2.50;99.90;;;;;;476849;249;27422;-72
2022/03/05 03:05:45;;;;;;;6.47;5.00;;;-2.50;99.90;;;;;;476840;249;27579;-72
2022/03/05 03:07:46;;;;;;;15.07;5.53;;;-2.50;99.90;;;;;;476822;249;27946;-72
2022/03/05 03:09:47;;;;;;;8.13;5.53;;;-2.50;99.90;;;;;;476802;249;29130;-72
2022/03/05 03:11:49;;;;;;;8.20;5.35;;;-2.50;99.90;;;;;;476822;249;28126;-72
2022/03/05 03:13:50;;;;;;;7.03;5.07;;;-2.50;99.90;;;;;;476815;249;27595;-72
2022/03/05 03:15:51;;;;;;;9.38;5.50;;;-2.60;99.90;;;;;;476819;249;27450;-73
2022/03/05 03:17:52;;;;;;;8.07;5.90;;;-2.60;99.90;;;;;;476806;249;27480;-71
2022/03/05 03:19:54;;;;;;;9.73;5.62;;;-2.50;99.90;;;;;;476784;249;27220;-72
2022/03/05 03:21:55;;;;;;;6.28;5.32;;;-2.50;99.90;;;;;;476630;249;27528;-72
2022/03/05 03:23:56;;;;;;;6.87;4.97;;;-2.50;99.90;;;;;;476780;249;27511;-72
2022/03/05 03:25:57;;;;;;;7.80;5.40;;;-2.50;99.90;;;;;;476778;249;27655;-73
2022/03/05 03:27:59;;;;;;;7.70;5.05;;;-2.50;99.90;;;;;;476796;249;28099;-72
2022/03/05 03:30:00;;;;;;;7.40;5.43;;;-2.50;99.90;;;;;;476806;249;29105;-72
2022/03/05 03:32:01;;;;;;;8.10;4.93;;;-2.50;99.90;;;;;;476796;249;28807;-72
2022/03/05 03:34:02;;;;;;;8.27;5.43;;;-2.50;99.90;;;;;;476796;248;27539;-72
2022/03/05 03:36:04;;;;;;;8.27;5.72;;;-2.60;99.90;;;;;;476821;249;27548;-72
2022/03/05 03:38:05;;;;;;;8.15;5.07;;;-2.60;99.90;;;;;;476818;249;27426;-72
2022/03/05 03:40:06;;;;;;;6.00;4.50;;;-2.60;99.90;;;;;;476774;249;27562;-72
2022/03/05 03:42:07;;;;;;;7.90;5.07;;;-2.60;99.90;;;;;;476793;249;27506;-71
2022/03/05 03:44:09;;;;;;;6.85;4.70;;;-2.60;99.90;;;;;;476782;249;27293;-72
2022/03/05 03:46:10;;;;;;;7.05;5.00;;;-2.60;99.90;;;;;;476812;249;27553;-74
2022/03/05 03:48:11;;;;;;;8.07;5.72;;;-2.60;99.90;;;;;;476824;249;28019;-72
2022/03/05 03:50:12;;;;;;;6.70;4.90;;;-2.50;99.90;;;;;;476782;249;28076;-72
2022/03/05 03:52:14;;;;;;;8.18;5.80;;;-2.50;99.90;;;;;;476762;249;28087;-72
2022/03/05 03:54:15;;;;;;;8.35;5.55;;;-2.60;99.90;;;;;;476782;249;27510;-72
2022/03/05 03:56:16;;;;;;;6.93;5.15;;;-2.60;99.90;;;;;;476804;249;27552;-73
2022/03/05 03:58:17;;;;;;;8.00;5.60;;;-2.70;99.90;;;;;;476812;249;27179;-71
2022/03/05 04:00:19;;;;;;;7.40;5.45;;;-2.70;99.90;;;;;;476775;249;27567;-72
2022/03/05 04:02:20;;;;;;;6.78;5.22;;;-2.70;99.90;;;;;;476805;249;27559;-74
2022/03/05 04:04:21;;;;;;;6.90;4.82;;;-2.70;99.90;;;;;;476807;249;27199;-72
2022/03/05 04:06:22;;;;;;;8.02;5.70;;;-2.70;99.90;;;;;;476812;249;27450;-73
2022/03/05 04:08:42;;;;;;;6.93;5.00;;;-2.70;99.90;;;;;;476792;249;27939;-71
2022/03/05 04:10:43;;;;;;;7.68;5.62;;;-2.70;99.90;;;;;;476796;249;27423;-72
2022/03/05 04:12:45;;;;;;;7.53;5.47;;;-2.70;99.90;;;;;;476801;249;27327;-73
2022/03/05 04:14:46;;;;;;;8.13;5.80;;;-2.60;99.90;;;;;;476791;249;27965;-72
2022/03/05 04:16:47;;;;;;;9.25;5.75;;;-2.60;99.90;;;;;;476801;249;28071;-72
2022/03/05 04:18:48;;;;;;;9.57;5.10;;;-2.60;99.90;;;;;;476802;249;28925;-71
2022/03/05 04:20:50;;;;;;;7.22;5.55;;;-2.50;99.90;;;;;;476803;249;27324;-72
2022/03/05 04:22:51;;;;;;;8.43;5.43;;;-2.50;99.90;;;;;;476816;249;27505;-73
2022/03/05 04:24:52;;;;;;;8.00;4.90;;;-2.50;99.90;;;;;;476816;249;27518;-72
2022/03/05 04:26:53;;;;;;;8.00;5.43;;;-2.60;99.90;;;;;;476825;249;27422;-72
2022/03/05 04:28:55;;;;;;;8.43;5.15;;;-2.50;99.90;;;;;;476822;249;27436;-75
2022/03/05 04:30:56;;;;;;;6.57;4.93;;;-2.60;99.90;;;;;;476846;249;27331;-72
2022/03/05 04:32:57;;;;;;;8.95;5.05;;;-2.60;99.90;;;;;;476820;249;27542;-72
2022/03/05 04:34:58;;;;;;;5.30;4.55;;;-2.70;99.90;;;;;;476818;249;27963;-71
2022/03/05 04:37:00;;;;;;;6.82;5.15;;;-2.70;99.90;;;;;;476832;249;28030;-72
2022/03/05 04:39:01;;;;;;;8.48;5.87;;;-2.70;99.90;;;;;;476849;249;27519;-74
2022/03/05 04:41:02;;;;;;;10.25;6.00;;;-2.80;99.90;;;;;;476843;249;27269;-72
2022/03/05 04:43:03;;;;;;;6.87;5.65;;;-2.80;99.90;;;;;;476834;248;27351;-73
2022/03/05 04:45:08;;;;;;;8.32;5.60;;;-2.80;99.90;;;;;;476837;249;27414;-72
2022/03/05 04:47:06;;;;;;;7.28;5.43;;;-2.90;99.90;;;;;;476665;249;27406;-71
2022/03/05 04:49:08;;;;;;;7.75;4.97;;;-2.80;99.90;;;;;;476854;249;27783;-75
2022/03/05 04:51:08;;;;;;;11.63;6.00;;;-2.70;99.90;;;;;;476847;249;27303;-72
2022/03/05 04:53:10;;;;;;;7.85;5.45;;;-2.50;99.90;;;;;;476833;249;27922;-72
2022/03/05 04:55:11;;;;;;;9.85;6.12;;;-2.50;99.90;;;;;;476843;249;27837;-72
2022/03/05 04:57:12;;;;;;;11.95;6.25;;;-2.20;99.90;;;;;;476810;249;28142;-72
2022/03/05 04:59:13;;;;;;;12.00;7.45;;;-2.10;99.90;;;;;;476808;249;27489;-75
2022/03/05 05:01:15;;;;;;;9.88;6.82;;;-1.90;99.90;;;;;;476830;249;27609;-71
2022/03/05 05:03:16;;;;;;;12.27;6.95;;;-1.80;99.90;;;;;;476832;249;27550;-72
2022/03/05 05:05:17;;;;;;;12.73;8.15;;;-2.00;99.90;;;;;;476818;249;27416;-71
2022/03/05 05:07:19;;;;;;;11.95;7.45;;;-2.00;99.90;;;;;;476834;249;27944;-72
2022/03/05 05:09:20;;;;;;;16.12;9.18;;;-1.90;99.90;;;;;;476766;249;27956;-74
2022/03/05 05:11:21;;;;;;;10.30;7.40;;;-1.70;99.90;;;;;;476837;249;28059;-71
2022/03/05 05:13:22;;;;;;;13.90;9.38;;;-1.60;99.90;;;;;;476742;249;28019;-72
2022/03/05 05:15:23;;;;;;;13.07;8.30;;;-1.60;99.90;;;;;;476752;249;27546;-72
2022/03/05 05:17:25;;;;;;;14.00;8.32;;;-1.50;99.90;;;;;;476803;249;27527;-71
2022/03/05 05:19:29;;;;;;;12.13;8.18;;;-1.50;99.90;;;;;;476796;249;27536;-72
2022/03/05 05:21:27;;;;;;;12.35;7.85;;;-1.50;99.90;;;;;;476646;249;27526;-72
2022/03/05 05:23:28;;;;;;;11.27;7.35;;;-1.60;99.90;;;;;;476814;249;27555;-71
2022/03/05 05:25:30;;;;;;;12.02;7.25;;;-1.60;99.90;;;;;;476834;249;28093;-72
2022/03/05 05:27:31;;;;;;;8.98;6.47;;;-1.60;99.90;;;;;;476830;249;28018;-73
2022/03/05 05:29:32;;;;;;;11.10;7.53;;;-1.60;99.90;;;;;;476820;249;28038;-72
2022/03/05 05:31:33;;;;;;;10.13;7.10;;;-1.60;99.90;;;;;;476810;249;27531;-72
2022/03/05 05:33:35;;;;;;;11.27;6.55;;;-1.60;99.90;;;;;;476805;249;27655;-72
2022/03/05 05:35:36;;;;;;;9.25;6.32;;;-1.60;99.90;;;;;;476839;249;27894;-72
2022/03/05 05:37:37;;;;;;;7.85;6.07;;;-1.60;99.90;;;;;;476828;249;27527;-72
2022/03/05 05:39:38;;;;;;;8.07;6.18;;;-1.60;99.90;;;;;;476849;249;27557;-72
2022/03/05 05:41:40;;;;;;;7.87;5.97;;;-1.60;99.90;;;;;;476837;249;27516;-72
2022/03/05 05:43:41;;;;;;;9.60;6.00;;;-1.60;99.90;;;;;;476830;249;28024;-72
2022/03/05 05:45:42;;;;;;;10.23;6.50;;;-1.60;99.90;;;;;;476840;249;28194;-71
2022/03/05 05:47:44;;;;;;;8.70;6.03;;;-1.60;99.90;;;;;;476843;249;27547;-71
2022/03/05 05:49:45;;;;;;;8.00;5.70;;;-1.60;99.90;;;;;;476827;249;27635;-72
2022/03/05 05:51:46;;;;;;;7.75;5.78;;;-1.60;99.90;;;;;;476837;249;27595;-71
2022/03/05 05:53:47;;;;;;;7.05;5.72;;;-1.60;99.90;;;;;;476801;249;27581;-72
2022/03/05 05:55:49;;;;;;;7.37;5.40;;;-1.60;99.90;;;;;;476797;249;27555;-72
2022/03/05 05:57:50;;;;;;;8.20;5.30;;;-1.60;99.90;;;;;;476825;249;27529;-71
2022/03/05 05:59:51;;;;;;;8.15;5.62;;;-1.60;99.90;;;;;;476846;249;27655;-73
2022/03/05 06:01:52;;;;;;;11.35;6.12;;;-1.60;99.90;;;;;;476831;249;27587;-72
2022/03/05 06:03:54;;;;;;;6.95;5.47;;;-1.60;99.90;;;;;;476832;249;28045;-72
2022/03/05 06:05:55;;;;;;;9.90;6.18;;;-1.60;99.90;;;;;;476846;249;28054;-72
2022/03/05 06:07:56;;;;;;;7.87;5.20;;;-1.60;99.90;;;;;;476852;249;27516;-71
2022/03/05 06:09:57;;;;;;;7.22;4.90;;;-1.60;99.90;;;;;;476828;249;27541;-73
2022/03/05 06:11:59;;;;;;;7.22;5.68;;;-1.60;99.90;;;;;;476809;249;27607;-72
2022/03/05 06:14:00;;;;;;;9.90;6.07;;;-1.60;99.90;;;;;;476795;249;27530;-72
2022/03/05 06:16:01;;;;;;;9.32;6.62;;;-1.50;99.90;;;;;;476815;249;27552;-71
2022/03/05 06:18:02;;;;;;;10.30;6.60;;;-1.50;99.90;;;;;;476817;249;27515;-72
2022/03/05 06:20:04;;;;;;;8.65;6.37;;;-1.50;99.90;;;;;;476812;249;27559;-73
2022/03/05 06:22:05;;;;;;;8.98;6.97;;;-1.50;99.90;;;;;;476800;249;28040;-71
2022/03/05 06:24:07;;;;;;;9.70;6.22;;;-1.50;99.90;;;;;;476791;249;28053;-75
2022/03/05 06:26:07;;;;;;;8.40;5.95;;;-1.50;99.90;;;;;;476832;249;29163;-72
2022/03/05 06:28:09;;;;;;;8.90;6.20;;;-1.50;99.90;;;;;;476853;249;27622;-72
2022/03/05 06:30:10;;;;;;;8.68;6.20;;;-1.40;99.90;;;;;;476838;249;27643;-75
2022/03/05 06:32:11;;;;;;;9.68;6.60;;;-1.40;99.90;;;;;;476812;249;27607;-71
2022/03/05 06:34:12;;;;;;;10.23;6.60;;;-1.40;99.90;;;;;;476804;249;27579;-73
2022/03/05 06:36:14;;;;;;;9.13;6.22;;;-1.40;99.90;;;;;;476775;249;27562;-71
2022/03/05 06:38:15;;;;;;;10.43;6.55;;;-1.40;99.90;;;;;;476815;249;27539;-71
2022/03/05 06:40:16;;;;;;;8.98;6.32;;;-1.30;99.90;;;;;;476831;249;28062;-73
2022/03/05 06:42:17;;;;;;;10.20;6.28;;;-1.30;99.90;;;;;;476808;249;27987;-71
2022/03/05 06:44:19;;;;;;;10.93;6.55;;;-1.30;99.90;;;;;;476819;249;28070;-72
2022/03/05 06:46:20;;;;;;;10.35;7.18;;;-1.20;99.90;;;;;;476805;249;27597;-71
2022/03/05 06:48:21;;;;;;;11.55;7.12;;;-1.20;99.90;;;;;;476815;249;27523;-72
2022/03/05 06:50:22;;;;;;;13.52;8.10;;;-1.20;99.90;;;;;;476807;249;27540;-72
2022/03/05 06:52:24;;;;;;;11.10;7.37;;;-1.20;99.90;;;;;;476803;249;27548;-72
2022/03/05 06:54:25;;;;;;;12.32;6.87;;;-1.20;99.90;;;;;;476814;249;27559;-72
2022/03/05 06:56:26;;;;;;;8.75;6.12;;;-1.10;99.90;;;;;;476822;249;29006;-72
2022/03/05 06:58:27;;;;;;;14.43;7.05;;;-1.10;99.90;;;;;;476810;249;27961;-72
2022/03/05 07:00:29;;;;;;;10.48;6.95;;;-1.00;99.90;;;;;;476806;249;28060;-72
2022/03/05 07:02:30;;;;;;;12.65;7.10;;;-1.00;99.90;;;;;;476830;249;27565;-72
2022/03/05 07:04:31;;;;;;;13.62;7.47;;;-0.90;99.90;;;;;;476790;249;27670;-72
2022/03/05 07:06:32;;;;;;;11.63;6.47;;;-0.90;99.90;;;;;;476790;249;27542;-72
2022/03/05 07:08:34;;;;;;;10.38;6.50;;;-1.00;99.90;;;;;;476791;249;27562;-72
2022/03/05 07:10:35;;;;;;;10.80;6.93;;;-0.90;99.90;;;;;;476762;249;28098;-72
2022/03/05 07:12:36;;;;;;;9.48;6.20;;;-0.90;99.90;;;;;;476776;249;28106;-71
2022/03/05 07:14:37;;;;;;;10.05;6.40;;;-0.90;99.90;;;;;;476764;249;28021;-72
2022/03/05 07:16:39;;;;;;;9.77;6.65;;;-0.80;99.90;;;;;;476822;249;27667;-74
2022/03/05 07:18:40;;;;;;;10.75;6.80;;;-0.80;99.90;;;;;;476810;249;27523;-72
2022/03/05 07:20:41;;;;;;;9.25;6.90;;;-0.80;99.90;;;;;;476832;249;27546;-72
2022/03/05 07:22:43;;;;;;;11.48;7.22;;;-0.70;99.90;;;;;;476810;249;27522;-72
2022/03/05 07:24:44;;;;;;;12.30;7.18;;;-0.70;99.90;;;;;;476799;249;27639;-72
2022/03/05 07:26:45;;;;;;;10.25;7.47;;;-0.60;99.90;;;;;;476809;249;27577;-74
2022/03/05 07:28:46;;;;;;;9.63;6.55;;;-0.60;99.90;;;;;;476842;248;28019;-71
2022/03/05 07:30:48;;;;;;;10.05;7.40;;;-0.60;99.90;;;;;;476828;249;29224;-72
2022/03/05 07:32:49;;;;;;;9.35;5.90;;;-0.50;99.90;;;;;;476822;249;27652;-72
2022/03/05 07:34:50;;;;;;;9.25;6.90;;;-0.50;99.90;;;;;;476802;249;27554;-72
2022/03/05 07:36:51;;;;;;;10.95;6.82;;;-0.40;99.90;;;;;;476830;249;27542;-72
2022/03/05 07:38:53;;;;;;;10.02;7.07;;;-0.40;99.90;;;;;;476815;249;27592;-71
2022/03/05 07:40:54;;;;;;;13.57;7.45;;;-0.40;99.90;;;;;;476795;249;27555;-73
2022/03/05 07:42:55;;;;;;;8.00;6.47;;;-0.20;99.90;;;;;;476772;249;27532;-72
2022/03/05 07:44:56;;;;;;;8.77;6.32;;;-0.30;99.90;;;;;;476793;249;28013;-71
2022/03/05 07:46:58;;;;;;;9.60;6.20;;;-0.20;99.90;;;;;;476798;249;28047;-74
2022/03/05 07:48:59;;;;;;;9.90;6.82;;;-0.10;99.90;;;;;;476815;249;27950;-72
2022/03/05 07:51:02;;;;;;;12.88;7.37;;;-0.10;99.90;;;;;;476798;249;27590;-72
2022/03/05 07:53:01;;;;;;;16.10;8.32;;;0.00;99.90;;;;;;476720;249;27499;-71
2022/03/05 07:55:03;;;;;;;15.30;8.82;;;0.20;99.90;;;;;;476801;247;27532;-72
2022/03/05 07:57:04;;;;;;;12.02;7.75;;;0.20;99.90;;;;;;476835;249;27630;-73
2022/03/05 07:59:05;;;;;;;13.82;8.73;;;0.30;99.90;;;;;;476830;249;27524;-71
2022/03/05 08:01:06;;;;;;;13.13;8.48;;;0.30;99.90;;;;;;476805;249;27550;-71
2022/03/05 08:03:08;;;;;;;18.60;8.77;;;0.30;99.90;;;;;;476763;249;27621;-71
2022/03/05 08:05:09;;;;;;;15.30;9.32;;;0.40;99.90;;;;;;476822;249;28028;-71
2022/03/05 08:07:10;;;;;;;16.73;9.48;;;0.50;99.90;;;;;;476819;249;28029;-72
2022/03/05 08:09:11;;;;;;;11.98;8.98;;;0.50;99.90;;;;;;476803;249;27978;-71
2022/03/05 08:11:13;;;;;;;16.60;9.98;;;0.50;99.90;;;;;;476805;249;27547;-72
2022/03/05 08:13:14;;;;;;;16.35;10.30;;;0.60;99.90;;;;;;476812;249;27556;-71
2022/03/05 08:15:15;;;;;;;19.65;12.13;;;0.70;99.90;;;;;;476814;249;27503;-72
2022/03/05 08:17:16;;;;;;;19.33;11.80;;;0.70;99.90;;;;;;476814;249;27559;-72
2022/03/05 08:19:18;;;;;;;22.30;11.93;;;0.80;99.90;;;;;;476792;249;27532;-73
2022/03/05 08:21:19;;;;;;;19.23;10.82;;;0.90;99.90;;;;;;476803;249;27558;-71
2022/03/05 08:23:20;;;;;;;19.85;11.43;;;1.00;99.90;;;;;;476821;249;28080;-72
2022/03/05 08:25:21;;;;;;;19.83;12.15;;;1.10;99.90;;;;;;476838;249;27948;-73
2022/03/05 08:27:23;;;;;;;14.15;9.75;;;1.10;99.90;;;;;;476806;249;27550;-73
2022/03/05 08:29:24;;;;;;;20.92;10.27;;;1.10;99.90;;;;;;476804;249;27561;-71
2022/03/05 08:31:25;;;;;;;15.88;9.75;;;1.20;99.90;;;;;;476810;249;27550;-72
2022/03/05 08:33:26;;;;;;;18.77;10.70;;;1.30;99.90;;;;;;476849;249;27676;-75
2022/03/05 08:35:28;;;;;;;21.73;11.12;;;1.30;99.90;;;;;;476886;249;27526;-72
2022/03/05 08:37:29;;;;;;;18.48;10.07;;;1.30;99.90;;;;;;476799;249;27563;-72
2022/03/05 08:39:30;;;;;;;16.98;10.52;;;1.40;99.90;;;;;;476768;249;28598;-72
2022/03/05 08:41:31;;;;;;;19.50;10.82;;;1.40;99.90;;;;;;476815;249;27979;-72
2022/03/05 08:43:33;;;;;;;16.12;10.23;;;1.50;99.90;;;;;;476786;249;27637;-73
2022/03/05 08:45:34;;;;;;;19.23;10.35;;;1.50;99.90;;;;;;476830;249;27536;-72
2022/03/05 08:47:35;;;;;;;15.23;9.40;;;1.50;99.90;;;;;;476790;249;27624;-72
2022/03/05 08:49:36;;;;;;;17.35;8.55;;;1.50;99.90;;;;;;476842;249;27559;-71
2022/03/05 08:51:41;;;;;;;12.32;8.55;;;1.60;99.90;;;;;;476858;249;27607;-72
2022/03/05 08:53:39;;;;;;;13.52;8.75;;;1.70;99.90;;;;;;476708;249;27547;-72
2022/03/05 08:55:41;;;;;;;16.62;9.15;;;1.70;99.90;;;;;;476837;249;27632;-72
2022/03/05 08:57:41;;;;;;;12.13;9.45;;;1.90;99.90;;;;;;476790;249;28047;-71
2022/03/05 08:59:43;;;;;;;13.27;9.60;;;2.00;99.90;;;;;;476814;249;29825;-72
2022/03/05 09:01:44;;;;;;;16.48;9.90;;;1.90;99.90;;;;;;476818;248;27576;-72
2022/03/05 09:03:45;;;;;;;15.75;9.30;;;1.90;99.90;;;;;;476814;249;27589;-72
2022/03/05 09:05:47;;;;;;;14.90;9.35;;;1.90;99.90;;;;;;476806;249;27504;-72
2022/03/05 09:07:48;;;;;;;14.10;8.90;;;2.00;99.90;;;;;;476795;249;27550;-72
2022/03/05 09:09:49;;;;;;;12.80;8.88;;;2.10;99.90;;;;;;476824;249;27528;-72
2022/03/05 09:11:50;;;;;;;12.18;8.38;;;2.10;99.90;;;;;;476827;249;27554;-71
2022/03/05 09:13:52;;;;;;;13.95;8.30;;;2.20;99.90;;;;;;476862;249;27560;-73
2022/03/05 09:15:53;;;;;;;13.43;7.95;;;2.30;99.90;;;;;;476856;249;27601;-72
2022/03/05 09:17:54;;;;;;;11.63;7.57;;;2.30;99.90;;;;;;476838;249;28111;-72
2022/03/05 09:19:55;;;;;;;14.02;8.82;;;2.50;99.90;;;;;;476785;249;28036;-71
2022/03/05 09:21:57;;;;;;;12.30;8.60;;;2.60;99.90;;;;;;476814;249;27544;-71
2022/03/05 09:23:58;;;;;;;13.13;8.45;;;2.50;99.90;;;;;;476825;249;27574;-73
2022/03/05 09:25:59;;;;;;;13.80;8.15;;;2.60;99.90;;;;;;476825;249;27603;-72
2022/03/05 09:28:00;;;;;;;10.13;7.75;;;2.60;99.90;;;;;;476894;249;27619;-72
2022/03/05 09:30:02;;;;;;;10.55;7.90;;;2.50;99.90;;;;;;476831;249;27596;-71
2022/03/05 09:32:03;;;;;;;12.00;7.40;;;2.60;99.90;;;;;;476811;249;27663;-72
2022/03/05 09:34:04;;;;;;;11.68;7.72;;;2.60;99.90;;;;;;476824;249;27718;-73
2022/03/05 09:36:05;;;;;;;11.30;7.47;;;2.80;99.90;;;;;;476829;249;27622;-72
2022/03/05 09:38:07;;;;;;;12.13;8.18;;;2.90;99.90;;;;;;476835;249;27997;-72
2022/03/05 09:40:08;;;;;;;10.52;7.93;;;2.90;99.90;;;;;;476832;249;28058;-71
2022/03/05 09:42:09;;;;;;;14.30;8.13;;;2.80;99.90;;;;;;476838;249;27557;-72
2022/03/05 09:44:10;;;;;;;11.70;8.15;;;3.00;99.90;;;;;;476854;249;27581;-74
2022/03/05 09:46:12;;;;;;;13.20;8.20;;;3.10;99.90;;;;;;476816;249;27602;-72
2022/03/05 09:48:13;;;;;;;14.75;8.48;;;3.20;99.90;;;;;;476808;249;27539;-72
2022/03/05 09:50:14;;;;;;;12.70;8.80;;;3.10;99.90;;;;;;476837;246;27566;-71
2022/03/05 09:52:15;;;;;;;10.68;7.20;;;3.10;99.90;;;;;;476834;249;27615;-72
2022/03/05 09:54:17;;;;;;;11.20;7.05;;;3.10;99.90;;;;;;476852;249;27643;-72
2022/03/05 09:56:18;;;;;;;10.95;7.45;;;3.00;99.90;;;;;;476836;249;27979;-71
2022/03/05 09:58:19;;;;;;;9.68;6.40;;;3.00;99.90;;;;;;476817;249;28028;-72
2022/03/05 10:00:20;;;;;;;13.50;7.10;;;3.10;99.90;;;;;;476819;249;28054;-71
2022/03/05 10:02:22;;;;;;;10.68;7.50;;;3.20;99.90;;;;;;476792;249;27542;-72
2022/03/05 10:04:23;;;;;;;13.82;8.23;;;3.40;99.90;;;;;;476850;249;27570;-73
2022/03/05 10:06:24;;;;;;;10.38;7.35;;;3.40;99.90;;;;;;476839;249;27553;-71
2022/03/05 10:08:25;;;;;;;10.68;8.18;;;3.40;99.90;;;;;;476835;249;27614;-72
2022/03/05 10:10:27;;;;;;;14.10;8.55;;;3.50;99.90;;;;;;476818;249;27603;-71
2022/03/05 10:12:28;;;;;;;13.43;8.10;;;3.60;99.90;;;;;;476816;249;27584;-72
2022/03/05 10:14:29;;;;;;;14.25;8.52;;;3.60;99.90;;;;;;476828;249;27577;-74
2022/03/05 10:16:32;;;;;;;10.50;6.65;;;3.50;99.90;;;;;;476847;249;28060;-71
2022/03/05 10:18:32;;;;;;;13.05;8.20;;;3.30;99.90;;;;;;476731;249;28100;-73
2022/03/05 10:20:33;;;;;;;10.57;7.47;;;3.50;99.90;;;;;;476827;249;28062;-72
2022/03/05 10:22:34;;;;;;;11.52;7.60;;;3.80;99.90;;;;;;476808;249;27551;-73
2022/03/05 10:24:36;;;;;;;11.70;7.68;;;3.70;99.90;;;;;;476849;249;27586;-75
2022/03/05 10:26:37;;;;;;;11.85;7.65;;;3.80;99.90;;;;;;476850;249;27500;-72
2022/03/05 10:28:38;;;;;;;11.60;8.13;;;3.80;99.90;;;;;;476860;249;27551;-72